Aviation Digital Data Service (ADDS)

Output produced by METARs form (0123 UTC 23 July 2017)
found at http://www.aviationweather.gov/adds/metars/
 
GVAC 230100Z 05010KT 9999 BKN014 25/19 Q1017 NOSIG
TAF GVAC 222300Z 2300/2406 04015KT 9999 BKN015 
     PROB30 
     TEMPO 2312/2318 04015G28KT FEW013 BKN015
       
TAF GVBA 222300Z 2300/2406 02015KT 9999 BKN015 
     TEMPO 2301/2307 01005KT
       
GVSV 230100Z 06009KT 9999 SCT020 25/20 Q1018 NOSIG
TAF GVSV 222300Z 2300/2406 06015G25KT 9999 FEW020 BKN025 
     TEMPO 2300/2308 07012KT 
     PROB30 
     TEMPO 2311/2319 06020G35KT